Time;durP1;ratioP1;P1;durP2;ratioP2;P2;SDS_P1;SDS_P2;PMS_P1;PMS_P2;Temp;Humidity;BMP_temperature;BMP_pressure;BME280_temperature;BME280_humidity;BME280_pressure;Samples;Min_cycle;Max_cycle;Signal;HPM_P1;HPM_P2
2024/02/07 00:02:02;;;;;;;0.90;0.90;;;-4.50;99.90;;;;;;5114162;28;20234;-75
2024/02/07 00:04:31;;;;;;;0.90;0.90;;;-4.50;99.90;;;;;;5113899;28;20223;-75
2024/02/07 00:06:57;;;;;;;0.80;0.80;;;-4.60;99.90;;;;;;5113998;28;20599;-75
2024/02/07 00:09:22;;;;;;;0.90;0.90;;;-4.50;99.90;;;;;;5113932;28;20187;-75
2024/02/07 00:11:48;;;;;;;0.90;0.90;;;-4.50;99.90;;;;;;5113976;28;20195;-68
2024/02/07 00:14:14;;;;;;;0.80;0.80;;;-4.50;99.90;;;;;;5113693;28;20199;-68
2024/02/07 00:16:42;;;;;;;0.90;0.90;;;-4.60;99.90;;;;;;5113151;28;20256;-68
2024/02/07 00:19:08;;;;;;;0.80;0.80;;;-4.60;99.90;;;;;;5113821;28;20214;-68
2024/02/07 00:21:34;;;;;;;0.90;0.90;;;-4.60;99.90;;;;;;5113394;28;20203;-68
2024/02/07 00:23:59;;;;;;;0.80;0.80;;;-4.60;99.90;;;;;;5113641;28;20215;-68
2024/02/07 00:26:25;;;;;;;0.80;0.80;;;-4.60;99.90;;;;;;5112114;28;20250;-69
2024/02/07 00:28:51;;;;;;;2.05;1.25;;;-4.60;99.90;;;;;;5113618;28;20196;-68
2024/02/07 00:31:23;;;;;;;0.80;0.80;;;-4.60;99.90;;;;;;5113457;28;20223;-68
2024/02/07 00:33:55;;;;;;;0.90;0.90;;;-4.60;99.90;;;;;;5113419;28;20290;-68
2024/02/07 00:36:21;;;;;;;0.90;0.90;;;-4.60;99.90;;;;;;5113162;28;20226;-69
2024/02/07 00:38:46;;;;;;;0.90;0.90;;;-4.60;99.90;;;;;;5113400;28;20717;-68
2024/02/07 00:41:27;;;;;;;0.90;0.90;;;-4.60;99.90;;;;;;5113273;28;20570;-68
2024/02/07 00:43:55;;;;;;;0.82;0.82;;;-4.60;99.90;;;;;;5111869;28;20229;-69
2024/02/07 00:46:21;;;;;;;0.80;0.80;;;-4.60;99.90;;;;;;5113006;28;20199;-68
2024/02/07 00:48:47;;;;;;;0.90;0.90;;;-4.60;99.90;;;;;;5113223;28;20188;-68
2024/02/07 00:51:12;;;;;;;0.93;0.93;;;-4.70;99.90;;;;;;5111827;28;20195;-68
2024/02/07 00:53:39;;;;;;;0.90;0.90;;;-4.70;99.90;;;;;;5112995;28;20210;-69
2024/02/07 00:56:05;;;;;;;0.90;0.90;;;-4.70;99.90;;;;;;5112999;28;20694;-68
2024/02/07 00:58:30;;;;;;;0.90;0.90;;;-4.70;99.90;;;;;;5112909;28;20203;-68
2024/02/07 01:00:56;;;;;;;0.80;0.80;;;-4.70;99.90;;;;;;5113336;28;20188;-68
2024/02/07 01:03:22;;;;;;;0.90;0.90;;;-4.70;99.90;;;;;;5112737;28;20200;-68
2024/02/07 01:05:48;;;;;;;1.00;1.00;;;-4.70;99.90;;;;;;5111618;28;20192;-68
2024/02/07 01:08:14;;;;;;;0.90;0.90;;;-4.70;99.90;;;;;;5112974;28;20565;-68
2024/02/07 01:10:39;;;;;;;0.90;0.90;;;-4.70;99.90;;;;;;5112094;28;20200;-68
2024/02/07 01:13:06;;;;;;;0.80;0.80;;;-4.70;99.90;;;;;;5112476;28;20245;-69
2024/02/07 01:15:32;;;;;;;0.85;0.85;;;-4.70;99.90;;;;;;5112700;28;20253;-69
2024/02/07 01:17:58;;;;;;;1.13;1.10;;;-4.70;99.90;;;;;;5112910;28;20198;-68
2024/02/07 01:20:23;;;;;;;0.80;0.80;;;-4.70;99.90;;;;;;5112632;28;20663;-68
2024/02/07 01:22:49;;;;;;;0.93;0.93;;;-4.70;99.90;;;;;;5112910;28;20211;-75
2024/02/07 01:25:15;;;;;;;0.88;0.88;;;-4.70;99.90;;;;;;5113091;28;20195;-76
2024/02/07 01:27:40;;;;;;;0.80;0.80;;;-4.70;99.90;;;;;;5112750;28;20225;-75
2024/02/07 01:30:12;;;;;;;0.90;0.90;;;-4.70;99.90;;;;;;5112858;28;20228;-75
2024/02/07 01:32:42;;;;;;;0.90;0.90;;;-4.70;99.90;;;;;;5112648;28;20196;-76
2024/02/07 01:35:11;;;;;;;0.90;0.90;;;-4.70;99.90;;;;;;5112812;28;20213;-75
2024/02/07 01:37:38;;;;;;;0.98;0.98;;;-4.70;99.90;;;;;;5112574;28;20214;-76
2024/02/07 01:40:10;;;;;;;0.90;0.90;;;-4.70;99.90;;;;;;5111476;28;20242;-75
2024/02/07 01:42:37;;;;;;;0.90;0.90;;;-4.70;99.90;;;;;;5112348;28;20310;-75
2024/02/07 01:45:31;;;;;;;1.00;1.00;;;-4.80;99.90;;;;;;5112610;28;20298;-75
2024/02/07 01:47:57;;;;;;;0.90;0.90;;;-4.80;99.90;;;;;;5105739;28;20655;-75
2024/02/07 01:50:24;;;;;;;1.00;1.00;;;-4.80;99.90;;;;;;5112424;28;20249;-75
2024/02/07 01:52:54;;;;;;;0.90;0.90;;;-4.80;99.90;;;;;;5112830;28;20282;-75
2024/02/07 01:55:20;;;;;;;0.90;0.90;;;-4.80;99.90;;;;;;5112195;28;20296;-74
2024/02/07 01:57:48;;;;;;;1.00;1.00;;;-4.80;99.90;;;;;;5112577;28;20332;-75
2024/02/07 02:00:15;;;;;;;0.80;0.80;;;-4.80;99.90;;;;;;5112714;28;20188;-75
2024/02/07 02:02:46;;;;;;;0.90;0.90;;;-4.80;99.90;;;;;;5112058;28;20211;-75
2024/02/07 02:05:13;;;;;;;0.87;0.87;;;-4.80;99.90;;;;;;5112442;28;20274;-76
2024/02/07 02:07:39;;;;;;;0.90;0.90;;;-4.80;99.90;;;;;;5110687;28;20203;-76
2024/02/07 02:10:05;;;;;;;0.90;0.90;;;-4.80;99.90;;;;;;5103666;28;20188;-75
2024/02/07 02:12:31;;;;;;;1.00;1.00;;;-4.80;99.90;;;;;;5091035;28;20222;-75
2024/02/07 02:14:58;;;;;;;0.90;0.90;;;-4.80;99.90;;;;;;5092187;28;20184;-75
2024/02/07 02:17:24;;;;;;;0.80;0.80;;;-4.80;99.90;;;;;;5090608;28;20655;-75
2024/02/07 02:19:50;;;;;;;0.88;0.88;;;-4.90;99.90;;;;;;5091927;28;20193;-76
2024/02/07 02:22:40;;;;;;;0.80;0.80;;;-4.90;99.90;;;;;;5092197;28;20568;-75
2024/02/07 02:25:43;;;;;;;0.90;0.90;;;-4.80;99.90;;;;;;5095552;28;20196;-75
2024/02/07 02:28:29;;;;;;;0.97;0.97;;;-4.90;99.90;;;;;;5095664;28;20204;-75
2024/02/07 02:30:58;;;;;;;0.80;0.80;;;-4.90;99.90;;;;;;5095676;28;20195;-73
2024/02/07 02:33:29;;;;;;;0.90;0.90;;;-4.90;99.90;;;;;;5095229;28;20318;-73
2024/02/07 02:35:58;;;;;;;0.90;0.90;;;-4.90;99.90;;;;;;5095390;28;20192;-73
2024/02/07 02:38:27;;;;;;;0.70;0.70;;;-4.90;99.90;;;;;;5095109;28;20189;-73
2024/02/07 02:40:54;;;;;;;0.88;0.88;;;-4.90;99.90;;;;;;5095251;28;20216;-73
2024/02/07 02:43:23;;;;;;;0.87;0.87;;;-4.90;99.90;;;;;;5093956;28;20245;-73
2024/02/07 02:45:50;;;;;;;0.80;0.80;;;-4.90;99.90;;;;;;5095196;28;20624;-73
2024/02/07 02:48:16;;;;;;;0.80;0.80;;;-4.90;99.90;;;;;;5095182;28;20207;-73
2024/02/07 02:50:42;;;;;;;0.90;0.90;;;-4.90;99.90;;;;;;5095069;28;20598;-73
2024/02/07 02:53:08;;;;;;;0.80;0.80;;;-4.90;99.90;;;;;;5095062;28;20192;-73
2024/02/07 02:55:33;;;;;;;0.90;0.90;;;-4.90;99.90;;;;;;5094702;28;20228;-73
2024/02/07 02:58:00;;;;;;;0.90;0.90;;;-4.90;99.90;;;;;;5095009;28;20568;-73
2024/02/07 03:00:27;;;;;;;0.90;0.90;;;-4.90;99.90;;;;;;5094923;28;20223;-73
2024/02/07 03:02:57;;;;;;;1.00;1.00;;;-4.90;99.90;;;;;;5103808;28;20207;-73
2024/02/07 03:10:38;;;;;;;0.80;0.80;;;-4.90;99.90;;;;;;5094604;28;20188;-73
2024/02/07 03:13:04;;;;;;;0.80;0.80;;;-4.90;99.90;;;;;;5094616;28;20237;-73
2024/02/07 03:15:32;;;;;;;0.90;0.90;;;-4.90;99.90;;;;;;5093258;28;20667;-73
2024/02/07 03:17:58;;;;;;;0.90;0.90;;;-4.90;99.90;;;;;;5094694;28;20180;-73
2024/02/07 03:20:24;;;;;;;0.80;0.80;;;-4.90;99.90;;;;;;5094382;28;20188;-73
2024/02/07 03:22:50;;;;;;;0.80;0.80;;;-4.90;99.90;;;;;;5094397;28;20203;-73
2024/02/07 03:25:20;;;;;;;0.90;0.90;;;-4.90;99.90;;;;;;5094487;28;20189;-73
2024/02/07 03:27:48;;;;;;;0.90;0.90;;;-4.90;99.90;;;;;;5094427;28;20184;-73
2024/02/07 03:30:21;;;;;;;0.80;0.80;;;-4.90;99.90;;;;;;5094418;28;20271;-73
2024/02/07 03:32:54;;;;;;;0.80;0.80;;;-4.90;99.90;;;;;;5094200;28;20672;-73
2024/02/07 03:35:20;;;;;;;0.90;0.90;;;-4.90;99.90;;;;;;5094297;28;20185;-73
2024/02/07 03:37:46;;;;;;;0.80;0.80;;;-4.90;99.90;;;;;;5094346;28;20556;-73
2024/02/07 03:40:13;;;;;;;0.80;0.80;;;-4.90;99.90;;;;;;5094214;28;20647;-73
2024/02/07 03:42:43;;;;;;;0.83;0.83;;;-4.90;99.90;;;;;;5093911;28;20211;-72
2024/02/07 03:45:16;;;;;;;0.90;0.90;;;-4.90;99.90;;;;;;5094166;28;20338;-73
2024/02/07 03:47:45;;;;;;;0.80;0.80;;;-4.90;99.90;;;;;;5092568;28;20188;-73
2024/02/07 03:50:12;;;;;;;0.95;0.95;;;-4.90;99.90;;;;;;5094065;28;20275;-73
2024/02/07 03:52:39;;;;;;;0.80;0.80;;;-4.90;99.90;;;;;;5093820;28;20224;-72
2024/02/07 03:55:06;;;;;;;0.88;0.88;;;-4.90;99.90;;;;;;5093779;28;20618;-72
2024/02/07 03:57:32;;;;;;;1.10;1.10;;;-4.90;99.90;;;;;;5093720;28;20219;-72
2024/02/07 03:59:58;;;;;;;1.52;1.42;;;-4.90;99.90;;;;;;5110035;28;20658;-72
2024/02/07 04:02:23;;;;;;;1.00;1.00;;;-4.90;99.90;;;;;;5101258;28;20211;-72
2024/02/07 04:04:50;;;;;;;1.40;1.30;;;-4.90;99.90;;;;;;5113826;28;20199;-72
2024/02/07 04:07:17;;;;;;;0.90;0.90;;;-4.90;99.90;;;;;;5114072;28;20646;-73
2024/02/07 04:09:43;;;;;;;0.90;0.90;;;-5.00;99.90;;;;;;5113866;28;20180;-72
2024/02/07 05:17:11;;;;;;;2.63;2.27;;;-5.70;99.90;;;;;;5092526;28;20201;-68
2024/02/07 05:19:37;;;;;;;0.80;0.80;;;-5.80;99.90;;;;;;5092377;28;20290;-68
2024/02/07 05:22:03;;;;;;;1.40;1.30;;;-5.80;99.90;;;;;;5092370;28;20297;-68
2024/02/07 05:24:29;;;;;;;1.00;1.00;;;-5.80;99.90;;;;;;5092173;28;20244;-68
2024/02/07 05:26:55;;;;;;;0.90;0.90;;;-5.90;99.90;;;;;;5092363;28;20204;-68
2024/02/07 05:29:20;;;;;;;0.90;0.90;;;-5.90;99.90;;;;;;5092101;28;20290;-68
2024/02/07 05:31:46;;;;;;;0.95;0.95;;;-6.00;99.90;;;;;;5092223;28;20654;-68
2024/02/07 05:34:12;;;;;;;0.90;0.90;;;-6.00;99.90;;;;;;5092186;28;20196;-68
2024/02/07 05:36:37;;;;;;;0.90;0.90;;;-6.10;99.90;;;;;;5092032;28;20211;-68
2024/02/07 05:39:03;;;;;;;0.83;0.83;;;-6.10;99.90;;;;;;5092016;28;20267;-68
2024/02/07 05:41:29;;;;;;;0.80;0.80;;;-6.20;99.90;;;;;;5090353;28;20208;-68
2024/02/07 05:43:54;;;;;;;0.87;0.87;;;-6.20;99.90;;;;;;5092101;28;20188;-68
2024/02/07 05:46:20;;;;;;;0.90;0.90;;;-6.20;99.90;;;;;;5091808;28;20192;-68
2024/02/07 05:48:46;;;;;;;1.10;1.10;;;-6.30;99.90;;;;;;5092080;28;20196;-68
2024/02/07 05:51:19;;;;;;;0.90;0.90;;;-6.30;99.90;;;;;;5097361;28;20780;-68
2024/02/07 05:53:44;;;;;;;0.90;0.90;;;-6.30;99.90;;;;;;5110973;28;20199;-71
2024/02/07 05:56:10;;;;;;;0.83;0.83;;;-6.30;99.90;;;;;;5094705;28;20762;-68
2024/02/07 05:58:39;;;;;;;1.10;1.10;;;-6.20;99.90;;;;;;5095718;28;20192;-68
2024/02/07 06:01:06;;;;;;;0.90;0.90;;;-6.20;99.90;;;;;;5096266;28;20188;-69
2024/02/07 06:03:32;;;;;;;1.00;1.00;;;-6.30;99.90;;;;;;5096029;28;20206;-69
2024/02/07 06:05:58;;;;;;;0.90;0.90;;;-6.30;99.90;;;;;;5095950;28;20177;-69
2024/02/07 06:08:24;;;;;;;0.90;0.90;;;-6.20;99.90;;;;;;5095514;28;20186;-68
2024/02/07 06:10:50;;;;;;;1.00;1.00;;;-6.30;99.90;;;;;;5095612;28;20193;-68
2024/02/07 06:13:16;;;;;;;0.90;0.90;;;-6.20;99.90;;;;;;5095676;28;20202;-69
2024/02/07 06:15:41;;;;;;;0.90;0.90;;;-6.20;99.90;;;;;;5095591;28;20558;-69
2024/02/07 06:18:07;;;;;;;1.00;1.00;;;-6.20;99.90;;;;;;5095902;28;20250;-69
2024/02/07 06:20:33;;;;;;;0.90;0.90;;;-6.30;99.90;;;;;;5095529;28;20193;-68
2024/02/07 06:22:59;;;;;;;0.90;0.90;;;-6.30;99.90;;;;;;5095417;28;20559;-68
2024/02/07 06:25:24;;;;;;;1.00;1.00;;;-6.30;99.90;;;;;;5095375;28;20199;-68
2024/02/07 06:27:50;;;;;;;0.83;0.83;;;-6.30;99.90;;;;;;5095774;28;20597;-68
2024/02/07 06:30:16;;;;;;;0.90;0.90;;;-6.30;99.90;;;;;;5095317;28;20683;-69
2024/02/07 06:32:41;;;;;;;1.00;1.00;;;-6.30;99.90;;;;;;5095182;28;20196;-68
2024/02/07 06:35:07;;;;;;;0.83;0.83;;;-6.30;99.90;;;;;;5094112;28;20568;-69
2024/02/07 06:37:33;;;;;;;1.00;1.00;;;-6.30;99.90;;;;;;5095093;28;20238;-69
2024/02/07 06:39:59;;;;;;;0.90;0.90;;;-6.30;99.90;;;;;;5095227;28;20683;-68
2024/02/07 06:42:24;;;;;;;1.00;1.00;;;-6.40;99.90;;;;;;5094799;28;20697;-69
2024/02/07 06:44:50;;;;;;;1.00;1.00;;;-6.40;99.90;;;;;;5095108;28;20690;-68
2024/02/07 06:47:16;;;;;;;0.80;0.80;;;-6.40;99.90;;;;;;5098861;28;20206;-69
2024/02/07 06:49:41;;;;;;;0.90;0.90;;;-6.30;99.90;;;;;;5115312;28;20188;-68
2024/02/07 06:52:07;;;;;;;1.10;1.10;;;-6.30;99.90;;;;;;5100150;28;20220;-68
2024/02/07 06:54:33;;;;;;;0.90;0.90;;;-6.30;99.90;;;;;;5094588;28;20664;-69
2024/02/07 06:56:58;;;;;;;0.90;0.90;;;-6.30;99.90;;;;;;5094837;28;20603;-68
2024/02/07 06:59:24;;;;;;;0.97;0.97;;;-6.30;99.90;;;;;;5093383;28;20759;-68
2024/02/07 07:01:50;;;;;;;0.90;0.90;;;-6.30;99.90;;;;;;5094694;28;20214;-68
2024/02/07 07:04:15;;;;;;;1.00;1.00;;;-6.30;99.90;;;;;;5094678;28;20188;-68
2024/02/07 07:06:41;;;;;;;0.90;0.90;;;-6.30;99.90;;;;;;5094601;28;20184;-68
2024/02/07 07:09:06;;;;;;;1.00;1.00;;;-6.30;99.90;;;;;;5093808;28;20188;-68
2024/02/07 07:11:32;;;;;;;0.90;0.90;;;-6.20;99.90;;;;;;5097517;28;20196;-71
2024/02/07 07:13:58;;;;;;;0.97;0.97;;;-6.30;99.90;;;;;;5114177;28;20266;-72
2024/02/07 07:16:24;;;;;;;1.00;1.00;;;-6.20;99.90;;;;;;5114753;28;20195;-72
2024/02/07 07:18:52;;;;;;;1.00;1.00;;;-6.30;99.90;;;;;;5114882;28;20613;-72
2024/02/07 07:21:19;;;;;;;0.80;0.80;;;-6.30;99.90;;;;;;5114808;28;20306;-72
2024/02/07 07:23:44;;;;;;;0.80;0.80;;;-6.30;99.90;;;;;;5114724;28;20196;-72
2024/02/07 07:26:10;;;;;;;0.97;0.97;;;-6.30;99.90;;;;;;5114803;28;20244;-72
2024/02/07 07:28:35;;;;;;;0.93;0.93;;;-6.30;99.90;;;;;;5114684;28;20179;-73
2024/02/07 07:31:01;;;;;;;0.93;0.93;;;-6.30;99.90;;;;;;5114807;28;20703;-72
2024/02/07 07:33:27;;;;;;;0.80;0.80;;;-6.40;99.90;;;;;;5114413;28;20244;-72
2024/02/07 07:35:52;;;;;;;0.90;0.90;;;-6.40;99.90;;;;;;5114502;28;20192;-71
2024/02/07 07:38:18;;;;;;;1.00;1.00;;;-6.30;99.90;;;;;;5114378;28;20195;-71
2024/02/07 07:40:44;;;;;;;0.77;0.77;;;-6.30;99.90;;;;;;5114246;28;20194;-71
2024/02/07 07:43:09;;;;;;;0.90;0.90;;;-6.30;99.90;;;;;;5114039;28;20218;-72
2024/02/07 07:45:35;;;;;;;0.97;0.97;;;-6.30;99.90;;;;;;5114198;28;20226;-72
2024/02/07 07:48:01;;;;;;;0.80;0.80;;;-6.20;99.90;;;;;;5113847;28;20183;-72
2024/02/07 07:50:26;;;;;;;0.90;0.90;;;-6.20;99.90;;;;;;5113922;28;20195;-72
2024/02/07 07:52:52;;;;;;;1.30;1.20;;;-6.10;99.90;;;;;;5114152;28;20543;-72
2024/02/07 07:55:18;;;;;;;0.90;0.90;;;-6.10;99.90;;;;;;5113998;28;20219;-72
2024/02/07 07:57:43;;;;;;;1.47;1.37;;;-6.00;99.90;;;;;;5114235;28;20643;-72
2024/02/07 08:00:09;;;;;;;0.93;0.93;;;-6.00;99.90;;;;;;5114197;28;20199;-73
2024/02/07 08:02:35;;;;;;;1.00;1.00;;;-6.00;99.90;;;;;;5112302;28;20575;-73
2024/02/07 08:05:00;;;;;;;0.90;0.90;;;-6.00;99.90;;;;;;5113926;28;20270;-73
2024/02/07 08:07:26;;;;;;;0.90;0.90;;;-5.90;99.90;;;;;;5113639;28;20194;-73
2024/02/07 08:09:52;;;;;;;1.10;1.10;;;-5.90;99.90;;;;;;5113805;28;20272;-73
2024/02/07 08:12:18;;;;;;;0.97;0.97;;;-5.90;99.90;;;;;;5113505;28;20279;-72
2024/02/07 08:14:43;;;;;;;0.97;0.97;;;-5.90;99.90;;;;;;5112341;28;20568;-72
2024/02/07 08:17:10;;;;;;;0.73;0.73;;;-5.80;99.90;;;;;;5113697;28;20200;-72
2024/02/07 08:19:35;;;;;;;0.93;0.93;;;-5.80;99.90;;;;;;5112067;28;20226;-72
2024/02/07 08:22:01;;;;;;;0.90;0.90;;;-5.80;99.90;;;;;;5113574;28;20199;-68
2024/02/07 08:24:26;;;;;;;0.90;0.90;;;-5.70;99.90;;;;;;5113385;28;20196;-68
2024/02/07 08:26:52;;;;;;;0.90;0.90;;;-5.70;99.90;;;;;;5112224;28;20278;-69
2024/02/07 08:29:18;;;;;;;1.10;1.10;;;-5.70;99.90;;;;;;5113446;28;20187;-69
2024/02/07 08:31:43;;;;;;;0.90;0.90;;;-5.60;99.90;;;;;;5113528;28;20188;-68
2024/02/07 08:34:09;;;;;;;0.90;0.90;;;-5.60;99.90;;;;;;5113502;28;20196;-68
2024/02/07 08:36:35;;;;;;;0.97;0.97;;;-5.60;99.90;;;;;;5112902;28;20244;-68
2024/02/07 08:39:00;;;;;;;0.80;0.80;;;-5.60;99.90;;;;;;5113414;28;20195;-68
2024/02/07 09:12:41;;;;;;;1.00;1.00;;;-4.60;99.90;;;;;;5092421;28;20613;-68
2024/02/07 09:15:07;;;;;;;1.53;1.43;;;-4.50;99.90;;;;;;5092282;28;20192;-68
2024/02/07 09:17:33;;;;;;;1.43;1.33;;;-4.50;99.90;;;;;;5091973;28;20188;-68
2024/02/07 09:20:00;;;;;;;0.90;0.90;;;-4.50;99.90;;;;;;5080925;28;20258;-68
2024/02/07 09:22:26;;;;;;;0.80;0.80;;;-4.50;99.90;;;;;;5071283;28;20212;-69
2024/02/07 09:24:51;;;;;;;1.97;1.60;;;-4.40;99.90;;;;;;5085968;28;20234;-68
2024/02/07 09:27:18;;;;;;;0.90;0.90;;;-4.40;99.90;;;;;;5083128;28;20683;-68
2024/02/07 09:29:44;;;;;;;1.40;1.30;;;-4.40;99.90;;;;;;5076596;28;20512;-67
2024/02/07 09:32:10;;;;;;;0.80;0.80;;;-4.40;99.90;;;;;;5092140;28;20207;-72
2024/02/07 09:34:36;;;;;;;1.00;1.00;;;-4.40;99.90;;;;;;5093315;28;20211;-72
2024/02/07 09:37:02;;;;;;;0.90;0.90;;;-4.40;99.90;;;;;;5076316;28;20291;-72
2024/02/07 09:39:28;;;;;;;0.80;0.80;;;-4.50;99.90;;;;;;5076123;28;20655;-72
2024/02/07 09:41:55;;;;;;;0.90;0.90;;;-4.50;99.90;;;;;;5076175;28;20222;-72
2024/02/07 09:44:22;;;;;;;1.40;1.30;;;-4.50;99.90;;;;;;5088800;28;20195;-71
2024/02/07 09:46:53;;;;;;;0.80;0.80;;;-4.50;99.90;;;;;;5096318;28;20188;-71
2024/02/07 09:49:24;;;;;;;0.77;0.77;;;-4.50;99.90;;;;;;5077984;28;20716;-72
2024/02/07 09:51:50;;;;;;;0.90;0.90;;;-4.50;99.90;;;;;;5096282;28;20200;-71
2024/02/07 09:54:18;;;;;;;1.50;1.40;;;-4.50;99.90;;;;;;5078051;28;20192;-71
2024/02/07 09:56:45;;;;;;;1.42;1.33;;;-4.60;99.90;;;;;;5096346;28;20632;-71
2024/02/07 09:59:12;;;;;;;1.10;1.10;;;-4.60;99.90;;;;;;5096203;28;20199;-72
2024/02/07 10:01:39;;;;;;;1.00;1.00;;;-4.50;99.90;;;;;;5062978;28;20219;-72
2024/02/07 10:04:12;;;;;;;1.00;1.00;;;-4.40;99.90;;;;;;5075848;28;20641;-72
2024/02/07 10:06:39;;;;;;;0.90;0.90;;;-4.40;99.90;;;;;;5057829;28;20696;-72
2024/02/07 10:09:07;;;;;;;0.90;0.90;;;-4.20;99.90;;;;;;5091492;28;20228;-72
2024/02/07 10:11:35;;;;;;;0.90;0.90;;;-4.20;99.90;;;;;;5095765;28;20540;-71
2024/02/07 10:14:01;;;;;;;0.90;0.90;;;-4.10;99.90;;;;;;5095921;28;20191;-72
2024/02/07 10:16:27;;;;;;;0.80;0.80;;;-4.00;99.90;;;;;;5095717;28;20192;-71
2024/02/07 10:18:54;;;;;;;0.80;0.80;;;-3.80;99.90;;;;;;5095929;28;20196;-71
2024/02/07 10:21:31;;;;;;;0.90;0.90;;;-3.70;99.90;;;;;;5105659;28;20550;-72
2024/02/07 10:24:04;;;;;;;0.70;0.70;;;-3.60;99.90;;;;;;5100880;28;20252;-71
2024/02/07 10:26:30;;;;;;;0.80;0.80;;;-3.50;99.90;;;;;;5095510;28;20246;-72
2024/02/07 10:29:06;;;;;;;0.80;0.80;;;-3.50;99.90;;;;;;5077394;28;20680;-71
2024/02/07 10:31:32;;;;;;;0.80;0.80;;;-3.30;99.90;;;;;;5111319;28;20731;-70
2024/02/07 10:34:30;;;;;;;0.90;0.90;;;-3.00;99.90;;;;;;5116590;28;20221;-71
2024/02/07 10:36:59;;;;;;;0.93;0.93;;;-2.60;99.90;;;;;;5115756;28;20709;-72
2024/02/07 10:39:24;;;;;;;0.75;0.75;;;-2.50;99.90;;;;;;5097944;28;20195;-71
2024/02/07 10:41:50;;;;;;;0.80;0.80;;;-2.40;99.90;;;;;;5115920;28;20234;-68
2024/02/07 10:44:17;;;;;;;0.95;0.95;;;-2.10;99.90;;;;;;5114291;28;20324;-67
2024/02/07 10:46:43;;;;;;;0.70;0.70;;;-1.90;99.90;;;;;;5115466;28;20564;-67
2024/02/07 10:49:10;;;;;;;0.90;0.90;;;-1.80;99.90;;;;;;5097254;28;20191;-67
2024/02/07 10:51:36;;;;;;;0.80;0.80;;;-1.70;99.90;;;;;;5114056;28;20659;-67
2024/02/07 10:54:07;;;;;;;1.20;1.10;;;-1.70;99.90;;;;;;5097088;28;20552;-67
2024/02/07 10:56:35;;;;;;;0.80;0.80;;;-1.60;99.90;;;;;;5115288;28;20263;-67
2024/02/07 10:59:03;;;;;;;0.95;0.95;;;-1.40;99.90;;;;;;5097186;28;20202;-67
2024/02/07 11:01:29;;;;;;;0.90;0.90;;;-1.40;99.90;;;;;;5115085;28;20191;-67
2024/02/07 11:03:59;;;;;;;3.78;2.10;;;-1.40;99.90;;;;;;5115166;28;20199;-67
2024/02/07 11:06:26;;;;;;;0.93;0.93;;;-1.20;99.90;;;;;;5115046;28;20187;-66
2024/02/07 11:08:56;;;;;;;0.60;0.60;;;-1.30;99.90;;;;;;5115087;28;20220;-68
2024/02/07 11:11:27;;;;;;;0.90;0.90;;;-1.20;99.90;;;;;;5096712;28;20614;-67
2024/02/07 11:13:53;;;;;;;0.82;0.82;;;-1.10;99.90;;;;;;5114985;28;20267;-67
2024/02/07 11:16:20;;;;;;;0.80;0.80;;;-0.90;99.90;;;;;;5114461;28;20271;-69
2024/02/07 11:18:46;;;;;;;1.17;1.13;;;-0.90;99.90;;;;;;5096391;28;20199;-66
2024/02/07 11:21:22;;;;;;;0.80;0.80;;;-0.80;99.90;;;;;;5114395;28;20588;-67
2024/02/07 11:23:49;;;;;;;1.42;1.25;;;-0.50;99.90;;;;;;5114844;28;20671;-66
2024/02/07 11:26:17;;;;;;;1.40;1.30;;;-0.40;99.90;;;;;;5096259;28;20667;-66
2024/02/07 11:28:43;;;;;;;0.85;0.85;;;0.00;99.90;;;;;;5114730;28;20665;-66
2024/02/07 11:31:09;;;;;;;0.70;0.70;;;0.40;99.90;;;;;;5114816;28;20191;-66
2024/02/07 11:33:42;;;;;;;0.70;0.70;;;0.60;99.90;;;;;;5096096;28;20248;-67
2024/02/07 11:36:15;;;;;;;0.70;0.70;;;0.60;99.90;;;;;;5096596;28;20563;-66
2024/02/07 11:38:43;;;;;;;0.85;0.85;;;0.80;99.90;;;;;;5075901;28;20196;-66
2024/02/07 11:41:09;;;;;;;0.80;0.80;;;0.90;99.90;;;;;;5094036;28;20192;-66
2024/02/07 11:43:37;;;;;;;0.70;0.70;;;1.10;99.90;;;;;;5105298;28;20233;-67
2024/02/07 11:46:06;;;;;;;0.65;0.65;;;1.10;99.90;;;;;;5096135;28;20202;-66
2024/02/07 11:48:40;;;;;;;0.90;0.90;;;1.20;99.90;;;;;;5114248;28;20198;-66
2024/02/07 11:51:07;;;;;;;0.70;0.70;;;1.20;99.90;;;;;;5114576;28;20715;-73
2024/02/07 11:53:39;;;;;;;0.70;0.70;;;1.20;99.90;;;;;;5114179;28;20191;-72
2024/02/07 11:56:20;;;;;;;1.00;1.00;;;0.80;99.90;;;;;;5095798;28;20655;-74
2024/02/07 11:58:49;;;;;;;0.73;0.73;;;0.40;99.90;;;;;;5114192;28;20191;-73
2024/02/07 12:01:16;;;;;;;0.73;0.73;;;0.20;99.90;;;;;;5114112;28;20191;-73
2024/02/07 12:03:42;;;;;;;0.60;0.60;;;0.10;99.90;;;;;;5114098;28;20191;-74
2024/02/07 12:06:11;;;;;;;0.65;0.65;;;0.20;99.90;;;;;;5095785;28;20697;-74
2024/02/07 12:08:38;;;;;;;0.80;0.80;;;0.20;99.90;;;;;;5113721;28;20215;-75
2024/02/07 12:11:08;;;;;;;0.80;0.80;;;0.10;99.90;;;;;;5095690;28;20199;-74
2024/02/07 12:13:35;;;;;;;0.50;0.50;;;0.00;99.90;;;;;;5111694;28;20199;-73
2024/02/07 12:16:03;;;;;;;0.63;0.63;;;0.10;99.90;;;;;;5113952;28;20210;-73
2024/02/07 12:18:28;;;;;;;1.15;0.98;;;0.00;99.90;;;;;;5113728;28;20274;-73
2024/02/07 12:21:00;;;;;;;0.77;0.77;;;0.00;99.90;;;;;;5113532;28;20230;-74
2024/02/07 12:23:25;;;;;;;0.70;0.70;;;-0.10;99.90;;;;;;5114082;28;20208;-73
2024/02/07 12:25:56;;;;;;;0.60;0.60;;;-0.50;99.90;;;;;;5095491;28;20248;-74
2024/02/07 12:28:21;;;;;;;0.60;0.60;;;-0.90;99.90;;;;;;5113557;28;20187;-72
2024/02/07 12:30:48;;;;;;;0.73;0.73;;;-1.10;99.90;;;;;;5113832;28;20191;-74
2024/02/07 12:33:26;;;;;;;0.80;0.80;;;-1.30;99.90;;;;;;5113939;28;20200;-74
2024/02/07 12:35:55;;;;;;;0.82;0.82;;;-1.60;99.90;;;;;;5079656;28;20738;-74
2024/02/07 12:38:22;;;;;;;0.70;0.70;;;-1.60;99.90;;;;;;5075135;28;20559;-74
2024/02/07 12:40:57;;;;;;;0.77;0.77;;;-1.60;99.90;;;;;;5093385;28;20675;-74
2024/02/07 12:43:25;;;;;;;0.80;0.80;;;-1.60;99.90;;;;;;5093011;28;20292;-74
2024/02/07 12:46:04;;;;;;;0.73;0.73;;;-1.50;99.90;;;;;;5075346;28;20675;-75
2024/02/07 12:48:33;;;;;;;0.65;0.65;;;-1.50;99.90;;;;;;5074478;28;20289;-74
2024/02/07 12:51:06;;;;;;;0.60;0.60;;;-1.60;99.90;;;;;;5093150;28;20204;-75
2024/02/07 12:53:33;;;;;;;0.80;0.80;;;-1.60;99.90;;;;;;5092923;28;20184;-74
2024/02/07 12:55:58;;;;;;;0.73;0.73;;;-1.40;99.90;;;;;;5074865;28;20192;-75
2024/02/07 12:58:39;;;;;;;0.80;0.80;;;-1.30;99.90;;;;;;5093166;28;20198;-74
2024/02/07 13:01:05;;;;;;;0.70;0.70;;;-1.20;99.90;;;;;;5093208;28;20270;-70
2024/02/07 13:03:32;;;;;;;0.70;0.70;;;-1.20;99.90;;;;;;5074571;28;20294;-70
2024/02/07 13:06:01;;;;;;;0.80;0.80;;;-1.20;99.90;;;;;;5092240;28;20552;-70
2024/02/07 13:08:27;;;;;;;0.80;0.80;;;-1.20;99.90;;;;;;5092299;28;20280;-70
2024/02/07 13:10:55;;;;;;;0.82;0.82;;;-1.30;99.90;;;;;;5106757;28;20274;-70
2024/02/07 13:13:22;;;;;;;0.80;0.80;;;-1.50;99.90;;;;;;5094211;28;20211;-70
2024/02/07 13:15:48;;;;;;;0.70;0.70;;;-1.60;99.90;;;;;;5112939;28;20289;-70
2024/02/07 13:18:13;;;;;;;0.80;0.80;;;-1.70;99.90;;;;;;5094736;28;20209;-70
2024/02/07 13:20:39;;;;;;;0.70;0.70;;;-1.70;99.90;;;;;;5112645;28;20199;-70
2024/02/07 13:23:04;;;;;;;0.80;0.80;;;-1.60;99.90;;;;;;5094824;28;20203;-70
2024/02/07 13:25:33;;;;;;;0.90;0.90;;;-1.50;99.90;;;;;;5112629;28;20191;-70
2024/02/07 13:27:59;;;;;;;0.82;0.82;;;-1.40;99.90;;;;;;5112879;28;20180;-70
2024/02/07 13:30:27;;;;;;;0.70;0.70;;;-1.40;99.90;;;;;;5112724;28;20195;-71
2024/02/07 13:32:53;;;;;;;0.80;0.80;;;-1.30;99.90;;;;;;5112782;28;20667;-71
2024/02/07 13:35:19;;;;;;;0.70;0.70;;;-1.40;99.90;;;;;;5101401;28;20202;-70
2024/02/07 13:37:44;;;;;;;0.90;0.90;;;-1.40;99.90;;;;;;5092272;28;20246;-70
2024/02/07 13:40:11;;;;;;;0.80;0.80;;;-1.40;99.90;;;;;;5092292;28;20207;-70
2024/02/07 13:42:37;;;;;;;0.90;0.90;;;-1.50;99.90;;;;;;5091800;28;20284;-70
2024/02/07 13:45:03;;;;;;;0.80;0.80;;;-1.60;99.90;;;;;;5091824;28;20212;-70
2024/02/07 13:47:29;;;;;;;0.90;0.90;;;-1.70;99.90;;;;;;5091995;28;20192;-70
2024/02/07 13:49:55;;;;;;;0.70;0.70;;;-1.80;99.90;;;;;;5092164;28;20199;-71
2024/02/07 13:52:21;;;;;;;0.60;0.60;;;-1.80;99.90;;;;;;5073778;28;20298;-71
2024/02/07 13:54:46;;;;;;;0.75;0.75;;;-1.90;99.90;;;;;;5092130;28;20274;-70
2024/02/07 13:57:12;;;;;;;1.10;1.02;;;-1.90;99.90;;;;;;5092005;28;20195;-70
2024/02/07 13:59:37;;;;;;;0.70;0.70;;;-1.90;99.90;;;;;;5091804;28;20192;-70
2024/02/07 14:02:09;;;;;;;0.90;0.90;;;-2.00;99.90;;;;;;5092057;28;20211;-68
2024/02/07 14:04:35;;;;;;;0.70;0.70;;;-2.10;99.90;;;;;;5091879;28;20192;-70
2024/02/07 14:07:01;;;;;;;0.80;0.80;;;-2.30;99.90;;;;;;5106346;28;20202;-71
2024/02/07 14:09:27;;;;;;;0.80;0.80;;;-2.50;99.90;;;;;;5111877;28;20590;-71
2024/02/07 14:11:52;;;;;;;0.70;0.70;;;-2.70;99.90;;;;;;5112337;28;20619;-71
2024/02/07 14:14:18;;;;;;;0.90;0.90;;;-2.80;99.90;;;;;;5080541;28;20219;-70
2024/02/07 14:16:44;;;;;;;0.90;0.90;;;-2.90;99.90;;;;;;5091619;28;20188;-70
2024/02/07 14:19:09;;;;;;;0.80;0.80;;;-3.10;99.90;;;;;;5095001;28;20204;-70
2024/02/07 14:21:35;;;;;;;0.90;0.90;;;-3.10;99.90;;;;;;5095038;28;20192;-72
2024/02/07 14:24:02;;;;;;;0.80;0.80;;;-3.10;99.90;;;;;;5096725;28;20189;-71
2024/02/07 14:26:28;;;;;;;0.82;0.82;;;-3.20;99.90;;;;;;5115571;28;20192;-70
2024/02/07 14:28:54;;;;;;;0.93;0.93;;;-3.20;99.90;;;;;;5115806;28;20237;-70
2024/02/07 14:31:19;;;;;;;0.80;0.80;;;-3.20;99.90;;;;;;5115300;28;20195;-70